Time;durP1;ratioP1;P1;durP2;ratioP2;P2;SDS_P1;SDS_P2;PMS_P1;PMS_P2;Temp;Humidity;BMP_temperature;BMP_pressure;BME280_temperature;BME280_humidity;BME280_pressure;Samples;Min_cycle;Max_cycle;Signal;HPM_P1;HPM_P2
2022/07/18 00:01:11;;;;;;;;;;;;;;;24.75;58.78;101413.16;7405004;19;1861;-60
2022/07/18 00:03:39;;;;;;;;;;;;;;;24.76;58.74;101419.41;7408588;19;1655;-60
2022/07/18 00:06:08;;;;;;;;;;;;;;;24.75;58.89;101425.78;7408809;19;1294;-60
2022/07/18 00:08:39;;;;;;;;;;;;;;;24.74;58.71;101424.13;7409144;19;1814;-56
2022/07/18 00:11:07;;;;;;;;;;;;;;;24.73;59.04;101430.50;7406298;19;1689;-56
2022/07/18 00:13:36;;;;;;;;;;;;;;;24.74;58.74;101443.06;7407308;19;1320;-60
2022/07/18 00:16:04;;;;;;;;;;;;;;;24.77;58.77;101445.41;7409551;19;1514;-60
2022/07/18 00:18:32;;;;;;;;;;;;;;;24.79;58.75;101451.56;7407863;19;1510;-56
2022/07/18 00:21:01;;;;;;;;;;;;;;;24.80;58.99;101474.88;7405522;19;1859;-56
2022/07/18 00:23:29;;;;;;;;;;;;;;;24.80;59.15;101472.16;7409278;19;985;-56
2022/07/18 00:26:00;;;;;;;;;;;;;;;24.78;58.94;101471.47;7405982;19;1742;-56
2022/07/18 00:28:28;;;;;;;;;;;;;;;24.74;58.97;101467.38;7407625;19;1520;-56
2022/07/18 00:30:57;;;;;;;;;;;;;;;24.77;58.93;101470.63;7407925;19;1518;-60
2022/07/18 00:33:25;;;;;;;;;;;;;;;24.78;59.10;101483.16;7406922;19;1542;-59
2022/07/18 00:35:53;;;;;;;;;;;;;;;24.78;58.93;101476.88;7408278;19;1631;-56
2022/07/18 00:38:22;;;;;;;;;;;;;;;24.79;58.75;101478.59;7408389;19;1538;-61
2022/07/18 00:40:50;;;;;;;;;;;;;;;24.77;59.05;101480.59;7404734;19;1866;-56
2022/07/18 00:43:21;;;;;;;;;;;;;;;24.79;58.86;101484.00;7406838;19;1562;-56
2022/07/18 00:45:52;;;;;;;;;;;;;;;24.78;59.04;101476.88;7407587;19;1580;-56
2022/07/18 00:48:21;;;;;;;;;;;;;;;24.75;59.29;101477.19;7405789;19;1537;-57
2022/07/18 00:50:49;;;;;;;;;;;;;;;24.76;59.13;101497.84;7407276;19;1541;-56
2022/07/18 00:53:18;;;;;;;;;;;;;;;24.72;59.07;101472.09;7408166;19;1534;-60
2022/07/18 00:55:47;;;;;;;;;;;;;;;24.71;59.04;101497.44;7405096;19;1498;-60
2022/07/18 00:58:16;;;;;;;;;;;;;;;24.70;59.06;101504.72;7407123;19;1498;-60
2022/07/18 01:03:29;;;;;;;;;;;;;;;24.71;59.36;101494.75;7408325;19;1519;-56
2022/07/18 01:05:57;;;;;;;;;;;;;;;24.70;59.50;101490.34;7407786;19;1642;-60
2022/07/18 01:08:25;;;;;;;;;;;;;;;24.70;59.53;101496.59;7406747;19;1780;-56
2022/07/18 01:10:54;;;;;;;;;;;;;;;24.70;59.24;101496.59;7403499;19;1668;-60
2022/07/18 01:13:22;;;;;;;;;;;;;;;24.69;59.44;101499.44;7406589;19;1551;-56
2022/07/18 01:15:53;;;;;;;;;;;;;;;24.70;59.13;101507.41;7407324;19;1616;-56
2022/07/18 01:18:22;;;;;;;;;;;;;;;24.69;59.31;101488.63;7405420;19;1534;-56
2022/07/18 01:20:53;;;;;;;;;;;;;;;24.73;59.11;101500.84;7405209;19;1855;-56
2022/07/18 01:23:21;;;;;;;;;;;;;;;24.70;59.10;101506.56;7407807;19;1017;-60
2022/07/18 01:25:50;;;;;;;;;;;;;;;24.69;59.37;101499.44;7404969;19;1693;-58
2022/07/18 01:28:18;;;;;;;;;;;;;;;24.71;59.45;101505.56;7406038;19;1543;-60
2022/07/18 01:30:47;;;;;;;;;;;;;;;24.72;59.21;101509.97;7405648;19;1597;-60
2022/07/18 01:33:15;;;;;;;;;;;;;;;24.76;59.05;101495.13;7405935;19;1539;-56
2022/07/18 01:35:44;;;;;;;;;;;;;;;24.72;59.37;101493.75;7406471;19;1636;-56
2022/07/18 01:38:17;;;;;;;;;;;;;;;24.74;58.94;101507.97;7406463;19;1602;-60
2022/07/18 01:40:46;;;;;;;;;;;;;;;24.78;59.12;101526.41;7402903;19;1857;-60
2022/07/18 01:43:14;;;;;;;;;;;;;;;24.74;59.40;101514.22;7404370;19;1760;-56
2022/07/18 01:45:43;;;;;;;;;;;;;;;24.70;59.43;101496.59;7405341;19;1315;-60
2022/07/18 01:48:11;;;;;;;;;;;;;;;24.72;59.12;101518.09;7403703;19;1300;-57
2022/07/18 01:50:39;;;;;;;;;;;;;;;24.73;59.24;101519.78;7405747;19;1451;-59
2022/07/18 01:53:08;;;;;;;;;;;;;;;24.68;59.37;101511.28;7406155;19;1596;-60
2022/07/18 01:55:39;;;;;;;;;;;;;;;24.66;59.35;101497.06;7404786;19;1551;-60
2022/07/18 01:58:07;;;;;;;;;;;;;;;24.66;59.47;101516.00;7404776;19;1785;-56
2022/07/18 02:00:38;;;;;;;;;;;;;;;24.66;59.54;101506.03;7396852;19;1805;-41
2022/07/18 02:03:18;;;;;;;;;;;;;;;24.65;59.62;101520.56;7391807;19;1571;-39
2022/07/18 02:05:52;;;;;;;;;;;;;;;24.63;59.33;101516.31;7401081;19;1654;-40
2022/07/18 02:08:28;;;;;;;;;;;;;;;24.65;59.17;101530.53;7401805;19;1998;-40
2022/07/18 02:11:11;;;;;;;;;;;;;;;24.65;59.20;101525.97;7398997;19;1778;-40
2022/07/18 02:13:39;;;;;;;;;;;;;;;24.69;59.33;101542.72;7400171;19;1736;-40
2022/07/18 02:16:16;;;;;;;;;;;;;;;24.68;59.21;101538.34;7401375;19;1460;-40
2022/07/18 02:18:44;;;;;;;;;;;;;;;24.67;59.54;101528.50;7401522;19;1679;-40
2022/07/18 02:21:24;;;;;;;;;;;;;;;24.66;59.33;101546.59;7399662;19;1864;-40
2022/07/18 02:23:54;;;;;;;;;;;;;;;24.68;59.38;101552.69;7402234;19;1116;-40
2022/07/18 02:26:26;;;;;;;;;;;;;;;24.65;59.30;101539.50;7399555;19;1806;-40
2022/07/18 02:29:00;;;;;;;;;;;;;;;24.65;59.22;101535.94;7400073;19;1786;-40
2022/07/18 02:31:39;;;;;;;;;;;;;;;24.67;59.28;101550.16;7399689;19;1927;-40
2022/07/18 02:34:10;;;;;;;;;;;;;;;24.64;59.30;101555.88;7399523;19;1760;-41
2022/07/18 02:36:47;;;;;;;;;;;;;;;24.65;59.30;101561.16;7399673;19;1764;-40
2022/07/18 02:39:15;;;;;;;;;;;;;;;24.65;59.53;101568.38;7401952;19;1001;-40
2022/07/18 02:41:50;;;;;;;;;;;;;;;24.65;59.12;101562.97;7397635;19;1864;-40
2022/07/18 02:44:20;;;;;;;;;;;;;;;24.71;59.39;101601.09;7400853;19;1880;-40
2022/07/18 02:46:53;;;;;;;;;;;;;;;24.65;59.42;101577.38;7400273;19;1761;-40
2022/07/18 02:49:31;;;;;;;;;;;;;;;24.66;58.98;101592.56;7400747;19;1658;-40
2022/07/18 02:52:02;;;;;;;;;;;;;;;24.55;55.95;101590.94;7400983;19;1726;-40
2022/07/18 02:54:39;;;;;;;;;;;;;;;24.53;56.71;101587.56;7399575;19;1678;-40
2022/07/18 02:57:15;;;;;;;;;;;;;;;24.52;58.67;101602.06;7399024;19;1890;-40
2022/07/18 02:59:50;;;;;;;;;;;;;;;24.53;58.76;101601.06;7399588;19;1478;-40
2022/07/18 03:02:18;;;;;;;;;;;;;;;24.54;58.50;101594.66;7397789;19;1857;-40
2022/07/18 03:04:51;;;;;;;;;;;;;;;24.57;59.18;101621.41;7399807;19;1835;-40
2022/07/18 03:07:23;;;;;;;;;;;;;;;24.51;59.32;101619.31;7399541;19;1647;-40
2022/07/18 03:09:53;;;;;;;;;;;;;;;24.52;59.14;101622.84;7399890;19;1681;-40
2022/07/18 03:12:24;;;;;;;;;;;;;;;24.53;59.22;101611.88;7400740;19;1853;-40
2022/07/18 03:14:53;;;;;;;;;;;;;;;24.53;59.29;101621.84;7399641;19;1815;-40
2022/07/18 03:17:21;;;;;;;;;;;;;;;24.52;59.03;101631.81;7397867;19;1718;-40
2022/07/18 03:19:52;;;;;;;;;;;;;;;24.53;59.04;101629.94;7399166;19;1632;-40
2022/07/18 03:22:22;;;;;;;;;;;;;;;24.52;58.98;101637.22;7397290;19;1953;-40
2022/07/18 03:24:52;;;;;;;;;;;;;;;24.53;59.05;101644.34;7398673;19;1831;-40
2022/07/18 03:27:23;;;;;;;;;;;;;;;24.48;58.71;101633.06;7398662;19;1582;-40
2022/07/18 03:29:58;;;;;;;;;;;;;;;24.51;58.84;101646.34;7397719;19;2015;-40
2022/07/18 03:32:36;;;;;;;;;;;;;;;24.47;58.93;101642.22;7399244;19;1709;-40
2022/07/18 03:35:12;;;;;;;;;;;;;;;24.48;58.88;101643.88;7403274;19;1909;-40
2022/07/18 03:37:44;;;;;;;;;;;;;;;24.48;59.09;101643.88;7405567;19;1945;-39
2022/07/18 03:40:21;;;;;;;;;;;;;;;24.47;58.64;101636.81;7406717;19;1649;-40
2022/07/18 03:42:54;;;;;;;;;;;;;;;24.54;58.75;101653.28;7403186;19;1843;-40
2022/07/18 03:45:28;;;;;;;;;;;;;;;24.50;58.72;101647.31;7406915;19;1435;-41
2022/07/18 03:48:00;;;;;;;;;;;;;;;24.49;58.82;101642.91;7406008;19;1652;-40
2022/07/18 03:50:33;;;;;;;;;;;;;;;24.51;58.70;101638.22;7406498;19;1804;-40
2022/07/18 03:53:03;;;;;;;;;;;;;;;24.53;58.53;101652.44;7405981;19;1784;-40
2022/07/18 03:55:43;;;;;;;;;;;;;;;24.54;58.38;101635.22;7407398;19;1690;-40
2022/07/18 03:58:15;;;;;;;;;;;;;;;24.58;58.24;101647.41;7405645;19;1835;-39
2022/07/18 04:00:47;;;;;;;;;;;;;;;24.58;58.37;101647.41;7405186;19;1902;-40
2022/07/18 04:03:25;;;;;;;;;;;;;;;24.61;58.29;101667.91;7403990;19;1952;-40
2022/07/18 04:05:58;;;;;;;;;;;;;;;24.61;57.96;101655.25;7406001;19;2018;-40
2022/07/18 04:08:30;;;;;;;;;;;;;;;24.63;57.91;101662.34;7406392;19;1770;-40
2022/07/18 04:11:10;;;;;;;;;;;;;;;24.61;57.78;101665.19;7404790;19;1936;-40
2022/07/18 04:13:43;;;;;;;;;;;;;;;24.61;58.09;101659.78;7404849;19;2001;-40
2022/07/18 04:16:16;;;;;;;;;;;;;;;24.64;57.82;101661.34;7405319;19;1833;-40
2022/07/18 04:18:49;;;;;;;;;;;;;;;24.72;57.87;101667.69;7404680;19;1821;-40
2022/07/18 04:21:19;;;;;;;;;;;;;;;24.68;57.94;101665.47;7404792;19;1859;-40
2022/07/18 04:23:48;;;;;;;;;;;;;;;24.69;57.88;101665.31;7406303;19;1019;-40
2022/07/18 04:26:19;;;;;;;;;;;;;;;24.69;57.52;101667.13;7404225;19;1955;-40
2022/07/18 04:28:51;;;;;;;;;;;;;;;24.67;57.49;101653.78;7405262;19;1806;-40
2022/07/18 04:31:27;;;;;;;;;;;;;;;24.75;57.50;101650.31;7404296;19;1884;-40
2022/07/18 04:33:59;;;;;;;;;;;;;;;24.72;57.24;101642.50;7408384;19;1831;-40
2022/07/18 04:36:39;;;;;;;;;;;;;;;24.70;57.43;101653.47;7408060;19;1896;-40
2022/07/18 04:39:11;;;;;;;;;;;;;;;24.70;57.40;101666.16;7406127;19;1090;-39
2022/07/18 04:41:39;;;;;;;;;;;;;;;24.73;57.61;101666.72;7403370;19;1856;-39
2022/07/18 04:44:12;;;;;;;;;;;;;;;24.72;57.37;101666.84;7403882;19;1925;-37
2022/07/18 04:46:46;;;;;;;;;;;;;;;24.68;57.48;101673.56;7404090;19;1750;-37
2022/07/18 04:49:19;;;;;;;;;;;;;;;24.67;57.39;101674.56;7404570;19;1640;-37
2022/07/18 04:51:47;;;;;;;;;;;;;;;24.64;57.55;101666.75;7404309;19;2043;-37
2022/07/18 04:54:19;;;;;;;;;;;;;;;24.63;57.69;101656.94;7404670;19;1890;-37
2022/07/18 04:56:52;;;;;;;;;;;;;;;24.64;57.30;101673.00;7406199;19;1783;-38
2022/07/18 04:59:22;;;;;;;;;;;;;;;24.63;57.59;101676.75;7407242;19;1563;-37
2022/07/18 05:01:54;;;;;;;;;;;;;;;24.63;57.67;101659.63;7400837;19;1965;-39
2022/07/18 05:04:23;;;;;;;;;;;;;;;24.74;57.15;101673.81;7404803;19;1910;-40
2022/07/18 05:06:55;;;;;;;;;;;;;;;24.70;56.83;101676.97;7401668;19;1837;-40
2022/07/18 05:09:24;;;;;;;;;;;;;;;24.80;57.18;101685.88;7404677;19;1167;-39
2022/07/18 05:11:52;;;;;;;;;;;;;;;24.73;57.11;101688.34;7403169;19;2064;-40
2022/07/18 05:14:22;;;;;;;;;;;;;;;24.72;57.15;101677.66;7403983;19;1496;-40
2022/07/18 05:16:54;;;;;;;;;;;;;;;24.74;57.31;101686.50;7402769;19;2066;-40
2022/07/18 05:19:30;;;;;;;;;;;;;;;24.80;56.77;101688.59;7402782;19;1917;-40
2022/07/18 05:22:00;;;;;;;;;;;;;;;24.81;56.84;101680.31;7402344;19;1862;-40
2022/07/18 05:24:39;;;;;;;;;;;;;;;24.86;56.67;101693.38;7404247;19;1931;-40
2022/07/18 05:27:15;;;;;;;;;;;;;;;24.90;56.88;101707.47;7403302;19;1665;-40
2022/07/18 05:29:43;;;;;;;;;;;;;;;24.91;56.77;101726.25;7403112;19;1639;-40
2022/07/18 05:32:18;;;;;;;;;;;;;;;24.96;56.38;101718.53;7402917;19;1737;-40
2022/07/18 05:34:58;;;;;;;;;;;;;;;24.94;56.40;101731.34;7402485;19;2012;-40
2022/07/18 05:37:27;;;;;;;;;;;;;;;24.92;56.76;101722.53;7403140;19;1980;-40
2022/07/18 05:39:59;;;;;;;;;;;;;;;24.86;56.69;101714.19;7403217;19;1955;-40
2022/07/18 05:42:31;;;;;;;;;;;;;;;24.81;56.78;101720.06;7402065;19;1850;-40
2022/07/18 05:45:03;;;;;;;;;;;;;;;24.84;56.97;101714.31;7402135;19;1879;-40
2022/07/18 05:47:32;;;;;;;;;;;;;;;24.85;56.88;101710.63;7402242;19;1584;-40
2022/07/18 05:50:10;;;;;;;;;;;;;;;24.89;56.67;101713.88;7402445;19;1697;-40
2022/07/18 05:52:41;;;;;;;;;;;;;;;24.86;56.80;101701.50;7401854;19;1929;-40
2022/07/18 05:55:19;;;;;;;;;;;;;;;24.91;56.92;101720.84;7402049;19;1918;-40
2022/07/18 05:57:52;;;;;;;;;;;;;;;24.83;56.95;101704.53;7399719;19;1908;-40
2022/07/18 06:00:21;;;;;;;;;;;;;;;24.91;56.85;101710.03;7402875;19;900;-40
2022/07/18 06:02:51;;;;;;;;;;;;;;;24.86;56.81;101706.91;7399348;19;1922;-40
2022/07/18 06:05:25;;;;;;;;;;;;;;;24.89;56.91;101712.03;7401314;19;1539;-40
2022/07/18 06:07:55;;;;;;;;;;;;;;;24.91;57.12;101714.56;7401142;19;1750;-40
2022/07/18 06:10:28;;;;;;;;;;;;;;;24.92;57.08;101710.88;7401260;19;1470;-40
2022/07/18 06:12:58;;;;;;;;;;;;;;;24.94;56.70;101712.41;7402029;19;1566;-40
2022/07/18 06:15:27;;;;;;;;;;;;;;;24.93;56.89;101713.44;7399605;19;1538;-40
2022/07/18 06:17:55;;;;;;;;;;;;;;;24.95;57.06;101722.25;7400467;19;1600;-40
2022/07/18 06:20:30;;;;;;;;;;;;;;;24.95;56.86;101721.41;7400153;19;1602;-40
2022/07/18 06:23:00;;;;;;;;;;;;;;;24.91;57.13;101742.50;7399984;19;1958;-40
2022/07/18 06:25:32;;;;;;;;;;;;;;;24.91;56.49;101709.16;7394396;19;1564;-40
2022/07/18 06:28:12;;;;;;;;;;;;;;;24.85;57.09;101710.63;7397881;19;1737;-40
2022/07/18 06:30:42;;;;;;;;;;;;;;;24.89;56.86;101706.63;7397246;19;1773;-40
2022/07/18 06:33:18;;;;;;;;;;;;;;;24.90;56.92;101705.59;7400501;19;1446;-40
2022/07/18 06:35:55;;;;;;;;;;;;;;;24.95;56.37;101703.31;7400986;19;1277;-40
2022/07/18 06:38:26;;;;;;;;;;;;;;;25.00;56.46;101724.47;7401039;19;1953;-40
2022/07/18 06:40:59;;;;;;;;;;;;;;;25.02;56.35;101730.59;7398201;19;1903;-40
2022/07/18 06:43:28;;;;;;;;;;;;;;;24.99;56.37;101728.22;7398017;19;1861;-40
2022/07/18 06:45:59;;;;;;;;;;;;;;;24.97;56.53;101731.06;7401208;19;1324;-40
2022/07/18 06:48:48;;;;;;;;;;;;;;;25.04;56.41;101746.69;7399142;19;1787;-40
2022/07/18 06:51:19;;;;;;;;;;;;;;;25.04;56.66;101725.88;7398423;19;1664;-40
2022/07/18 06:53:49;;;;;;;;;;;;;;;24.96;56.89;101729.34;7400316;19;1923;-40
2022/07/18 06:56:20;;;;;;;;;;;;;;;25.04;56.62;101738.56;7398332;19;1769;-40
2022/07/18 07:01:30;;;;;;;;;;;;;;;24.93;56.92;101724.25;7396038;19;2399;-40
2022/07/18 07:04:02;;;;;;;;;;;;;;;24.97;56.68;101712.13;7398343;19;1857;-39
2022/07/18 07:06:39;;;;;;;;;;;;;;;24.96;56.86;101707.69;7399260;19;1828;-40
2022/07/18 07:09:09;;;;;;;;;;;;;;;24.97;57.04;101704.00;7404397;19;1749;-40
2022/07/18 07:11:42;;;;;;;;;;;;;;;24.94;57.11;101714.28;7407267;19;1918;-40
2022/07/18 07:14:11;;;;;;;;;;;;;;;24.99;56.67;101723.63;7407654;19;1667;-40
2022/07/18 07:16:45;;;;;;;;;;;;;;;24.98;56.94;101705.69;7406908;19;1954;-40
2022/07/18 07:19:15;;;;;;;;;;;;;;;25.00;57.05;101724.47;7406545;19;1674;-40
2022/07/18 07:21:46;;;;;;;;;;;;;;;25.01;56.77;101735.16;7405096;19;1630;-41
2022/07/18 07:27:05;;;;;;;;;;;;;;;25.01;56.92;101709.97;7403264;19;2338;-40
2022/07/18 07:29:43;;;;;;;;;;;;;;;25.01;56.84;101705.41;7405146;19;1930;-40
2022/07/18 07:32:13;;;;;;;;;;;;;;;25.00;56.92;101709.09;7406005;19;1889;-40
2022/07/18 07:34:52;;;;;;;;;;;;;;;25.01;56.83;101720.78;7406987;19;1831;-40
2022/07/18 07:37:30;;;;;;;;;;;;;;;25.02;56.64;101701.66;7409788;19;1382;-40
2022/07/18 07:40:03;;;;;;;;;;;;;;;25.00;56.88;101709.09;7409338;19;1424;-40
2022/07/18 07:42:33;;;;;;;;;;;;;;;24.99;56.91;101695.75;7405727;19;1854;-40
2022/07/18 07:45:02;;;;;;;;;;;;;;;25.01;56.99;101723.50;7406706;19;1886;-40
2022/07/18 07:47:31;;;;;;;;;;;;;;;24.97;56.98;101716.69;7404210;19;1711;-40
2022/07/18 07:50:01;;;;;;;;;;;;;;;25.00;56.98;101714.50;7405701;19;1965;-40
2022/07/18 07:52:44;;;;;;;;;;;;;;;24.99;57.26;101707.41;7405757;19;1344;-40
2022/07/18 07:55:19;;;;;;;;;;;;;;;25.02;56.87;101707.09;7403343;19;1441;-40
2022/07/18 07:57:57;;;;;;;;;;;;;;;25.01;56.96;101699.97;7405900;19;1432;-40
2022/07/18 08:00:27;;;;;;;;;;;;;;;24.97;57.21;101703.16;7409361;19;1474;-41
2022/07/18 08:03:00;;;;;;;;;;;;;;;25.00;57.43;101705.53;7404251;19;1868;-40
2022/07/18 08:05:29;;;;;;;;;;;;;;;24.98;57.25;101702.13;7404205;19;1615;-39
2022/07/18 08:07:59;;;;;;;;;;;;;;;24.99;57.36;101701.16;7405281;19;1600;-40
2022/07/18 08:10:30;;;;;;;;;;;;;;;25.00;57.24;101700.13;7404846;19;1850;-40
2022/07/18 08:13:05;;;;;;;;;;;;;;;25.00;56.97;101702.84;7403369;19;1759;-40
2022/07/18 08:15:36;;;;;;;;;;;;;;;25.01;57.22;101691.03;7404121;19;1700;-41
2022/07/18 08:18:04;;;;;;;;;;;;;;;24.94;57.21;101684.50;7405024;19;1680;-40
2022/07/18 08:20:35;;;;;;;;;;;;;;;25.00;57.22;101702.84;7403835;19;1607;-39
2022/07/18 08:23:07;;;;;;;;;;;;;;;24.98;57.32;101702.13;7404219;19;1854;-40
2022/07/18 08:25:40;;;;;;;;;;;;;;;24.99;57.12;101701.16;7404354;19;1640;-40
2022/07/18 08:28:14;;;;;;;;;;;;;;;25.00;57.16;101692.00;7405015;19;1630;-40
2022/07/18 08:33:27;;;;;;;;;;;;;;;25.01;57.35;101683.75;7402082;19;2232;-40
2022/07/18 08:35:58;;;;;;;;;;;;;;;24.98;57.44;101667.81;7404830;19;1474;-40
2022/07/18 08:38:30;;;;;;;;;;;;;;;25.06;57.34;101687.84;7404949;19;1954;-40
2022/07/18 08:41:08;;;;;;;;;;;;;;;24.97;57.20;101662.56;7402493;19;2061;-40
2022/07/18 08:43:37;;;;;;;;;;;;;;;24.94;57.34;101661.00;7402123;19;1846;-40
2022/07/18 08:46:07;;;;;;;;;;;;;;;24.97;57.46;101666.13;7404849;19;1774;-40
2022/07/18 08:48:39;;;;;;;;;;;;;;;24.96;57.65;101675.22;7404253;19;1834;-40
2022/07/18 08:51:11;;;;;;;;;;;;;;;24.96;57.39;101680.63;7403976;19;1835;-40
2022/07/18 08:53:52;;;;;;;;;;;;;;;24.97;57.54;101682.34;7405470;19;1593;-40
2022/07/18 08:56:39;;;;;;;;;;;;;;;24.96;57.41;101666.25;7404080;19;1767;-37
2022/07/18 08:59:12;;;;;;;;;;;;;;;24.92;57.59;101670.28;7404668;19;1496;-37
2022/07/18 09:01:40;;;;;;;;;;;;;;;24.96;57.40;101679.78;7401327;19;1853;-38
2022/07/18 09:04:22;;;;;;;;;;;;;;;24.94;57.42;101668.28;7401612;19;1860;-37
2022/07/18 09:06:58;;;;;;;;;;;;;;;24.98;57.46;101700.28;7403158;19;1888;-37
2022/07/18 09:09:27;;;;;;;;;;;;;;;24.96;57.81;101658.16;7403297;19;1721;-38
2022/07/18 09:11:56;;;;;;;;;;;;;;;24.95;57.69;101660.00;7400376;19;1833;-38
2022/07/18 09:14:38;;;;;;;;;;;;;;;24.93;57.66;101670.13;7402281;19;1630;-39
2022/07/18 09:17:09;;;;;;;;;;;;;;;24.94;57.75;101654.75;7402350;19;1519;-38
2022/07/18 09:19:37;;;;;;;;;;;;;;;24.93;57.66;101674.69;7401603;19;1717;-38
2022/07/18 09:22:16;;;;;;;;;;;;;;;24.95;57.93;101660.00;7401192;19;1549;-39
2022/07/18 09:24:59;;;;;;;;;;;;;;;24.91;57.58;101639.69;7400861;19;1856;-39
2022/07/18 09:27:32;;;;;;;;;;;;;;;24.91;57.72;101657.75;7402508;19;1924;-38
2022/07/18 09:30:17;;;;;;;;;;;;;;;24.92;57.92;101632.41;7402247;19;2034;-38
2022/07/18 09:32:47;;;;;;;;;;;;;;;24.92;57.63;101663.00;7400856;19;1912;-38
2022/07/18 09:35:16;;;;;;;;;;;;;;;24.91;57.74;101650.50;7402049;19;2539;-39
2022/07/18 09:37:55;;;;;;;;;;;;;;;24.90;57.72;101648.78;7402926;19;1823;-38
2022/07/18 09:40:24;;;;;;;;;;;;;;;24.91;57.63;101650.50;7399602;19;1959;-38
2022/07/18 09:42:53;;;;;;;;;;;;;;;24.91;57.79;101645.09;7402555;19;1871;-39
2022/07/18 09:45:28;;;;;;;;;;;;;;;24.96;57.55;101652.72;7403910;19;963;-38
2022/07/18 09:47:57;;;;;;;;;;;;;;;24.91;57.59;101655.03;7403194;19;1083;-38
2022/07/18 09:50:26;;;;;;;;;;;;;;;24.93;57.53;101632.25;7403408;19;1901;-38
2022/07/18 09:52:59;;;;;;;;;;;;;;;24.92;57.90;101646.78;7402511;19;1924;-39
2022/07/18 09:55:27;;;;;;;;;;;;;;;24.92;57.77;101638.66;7398619;19;1532;-38
2022/07/18 09:58:01;;;;;;;;;;;;;;;24.92;57.63;101656.75;7402836;19;1931;-38
2022/07/18 10:00:32;;;;;;;;;;;;;;;24.93;57.63;101645.78;7402409;19;1630;-38
2022/07/18 10:03:01;;;;;;;;;;;;;;;24.93;57.80;101644.91;7398142;19;1852;-38
2022/07/18 10:05:30;;;;;;;;;;;;;;;24.98;57.78;101659.69;7402300;19;1806;-38
2022/07/18 10:07:59;;;;;;;;;;;;;;;24.93;57.66;101636.78;7399358;19;1903;-39
2022/07/18 10:10:28;;;;;;;;;;;;;;;24.90;57.82;101635.25;7399025;19;1909;-39
2022/07/18 10:12:58;;;;;;;;;;;;;;;24.92;58.03;101641.38;7400736;19;1515;-38
2022/07/18 10:15:27;;;;;;;;;;;;;;;24.89;57.85;101625.44;7401664;19;1958;-39
2022/07/18 10:17:58;;;;;;;;;;;;;;;24.90;57.82;101631.72;7401680;19;1931;-38
2022/07/18 10:20:31;;;;;;;;;;;;;;;24.90;57.89;101629.84;7400854;19;2324;-39
2022/07/18 10:23:02;;;;;;;;;;;;;;;24.93;57.64;101648.50;7400865;19;1849;-38
2022/07/18 10:25:30;;;;;;;;;;;;;;;24.93;58.02;101636.78;7400400;19;1832;-38
2022/07/18 10:28:06;;;;;;;;;;;;;;;24.92;57.88;101644.06;7401426;19;1838;-39
2022/07/18 10:30:36;;;;;;;;;;;;;;;24.88;57.66;101667.03;7401023;19;1716;-39
2022/07/18 10:33:27;;;;;;;;;;;;;;;24.86;57.79;101633.88;7399961;19;2195;-39
2022/07/18 10:36:05;;;;;;;;;;;;;;;24.86;57.82;101638.44;7398679;19;1881;-39
2022/07/18 10:38:33;;;;;;;;;;;;;;;24.88;57.81;101634.56;7405310;19;1528;-38
2022/07/18 10:41:05;;;;;;;;;;;;;;;24.84;57.63;101654.81;7403139;19;1845;-39
2022/07/18 10:43:34;;;;;;;;;;;;;;;24.85;57.73;101637.59;7402691;19;1855;-39
2022/07/18 10:46:03;;;;;;;;;;;;;;;24.85;57.76;101640.28;7408393;19;1643;-38
2022/07/18 10:48:46;;;;;;;;;;;;;;;24.88;57.90;101645.38;7404066;19;1844;-38
2022/07/18 10:51:18;;;;;;;;;;;;;;;24.80;57.83;101638.03;7406826;19;1658;-39
2022/07/18 10:54:01;;;;;;;;;;;;;;;24.85;57.97;101628.59;7407095;19;1846;-38
2022/07/18 10:56:44;;;;;;;;;;;;;;;24.86;57.60;101627.63;7407865;19;1298;-39
2022/07/18 10:59:17;;;;;;;;;;;;;;;24.86;58.02;101630.31;7406863;19;1740;-38
2022/07/18 11:01:50;;;;;;;;;;;;;;;24.87;57.92;101616.63;7410700;19;1830;-38
2022/07/18 11:04:25;;;;;;;;;;;;;;;24.90;57.52;101616.31;7407224;19;1861;-38
2022/07/18 11:07:06;;;;;;;;;;;;;;;24.93;57.79;101616.03;7406516;19;1728;-38
2022/07/18 11:09:38;;;;;;;;;;;;;;;24.88;57.57;101612.91;7408131;19;1610;-38
2022/07/18 11:12:21;;;;;;;;;;;;;;;24.96;57.57;101613.00;7406654;19;1821;-38
2022/07/18 11:15:04;;;;;;;;;;;;;;;24.92;57.85;101610.75;7407584;19;1793;-38
2022/07/18 11:17:47;;;;;;;;;;;;;;;24.90;57.70;101596.53;7405406;19;1956;-38
2022/07/18 11:20:25;;;;;;;;;;;;;;;24.89;57.58;101598.41;7405579;19;1594;-38
2022/07/18 11:22:56;;;;;;;;;;;;;;;24.88;57.51;101590.44;7406076;19;1934;-38
2022/07/18 11:25:27;;;;;;;;;;;;;;;24.86;57.72;101582.47;7404485;19;1976;-38
2022/07/18 11:27:55;;;;;;;;;;;;;;;24.88;57.87;101561.50;7406887;19;1711;-39
2022/07/18 11:30:24;;;;;;;;;;;;;;;24.84;57.75;101579.06;7405992;19;1762;-39
2022/07/18 11:32:53;;;;;;;;;;;;;;;24.86;57.42;101585.16;7406930;19;1555;-38
2022/07/18 11:35:25;;;;;;;;;;;;;;;24.85;57.81;101567.25;7406454;19;2010;-38
2022/07/18 11:37:57;;;;;;;;;;;;;;;24.83;57.69;101577.38;7406266;19;1727;-39
2022/07/18 11:40:25;;;;;;;;;;;;;;;24.86;57.72;101581.63;7405713;19;1639;-39
2022/07/18 11:42:53;;;;;;;;;;;;;;;24.88;57.86;101571.50;7405817;19;1653;-38
2022/07/18 11:45:24;;;;;;;;;;;;;;;24.88;57.64;101564.22;7405364;19;1860;-38
2022/07/18 11:47:53;;;;;;;;;;;;;;;24.88;57.91;101550.69;7406402;19;1768;-38
2022/07/18 11:50:35;;;;;;;;;;;;;;;24.91;57.70;101566.63;7404747;19;1821;-39
2022/07/18 11:53:06;;;;;;;;;;;;;;;24.89;57.78;101555.09;7406394;19;1602;-39
2022/07/18 11:55:35;;;;;;;;;;;;;;;24.87;57.73;101559.81;7401485;19;1935;-38
2022/07/18 11:58:10;;;;;;;;;;;;;;;24.86;57.79;101546.44;7405525;19;1575;-39
2022/07/18 12:00:38;;;;;;;;;;;;;;;24.91;57.83;101563.03;7405969;19;1579;-38
2022/07/18 12:03:10;;;;;;;;;;;;;;;24.89;57.71;101565.94;7403037;19;1791;-39
2022/07/18 12:05:39;;;;;;;;;;;;;;;24.86;57.60;101550.00;7404158;19;1847;-38
2022/07/18 12:08:22;;;;;;;;;;;;;;;24.88;57.78;101544.44;7405979;19;2075;-38
2022/07/18 12:11:06;;;;;;;;;;;;;;;24.92;57.54;101559.34;7405498;19;1818;-38
2022/07/18 12:14:01;;;;;;;;;;;;;;;24.90;57.75;101537.84;7404362;19;2067;-38
2022/07/18 12:16:34;;;;;;;;;;;;;;;24.89;57.50;101538.00;7401108;19;2405;-39
2022/07/18 12:19:07;;;;;;;;;;;;;;;24.84;58.06;101534.94;7404511;19;1621;-39
2022/07/18 12:21:46;;;;;;;;;;;;;;;24.78;57.24;101531.84;7405045;19;1900;-38
2022/07/18 12:24:35;;;;;;;;;;;;;;;24.78;58.35;101525.56;7405553;19;1850;-38
2022/07/18 12:27:12;;;;;;;;;;;;;;;24.80;58.35;101532.53;7403144;19;1867;-39
2022/07/18 12:30:02;;;;;;;;;;;;;;;24.92;58.23;101533.13;7405082;19;1674;-38
2022/07/18 12:32:38;;;;;;;;;;;;;;;24.94;58.02;101536.53;7404702;19;2027;-38
2022/07/18 12:35:08;;;;;;;;;;;;;;;24.91;57.83;101517.06;7403635;19;1744;-38
2022/07/18 12:37:36;;;;;;;;;;;;;;;24.90;57.88;101537.84;7404416;19;1720;-38
2022/07/18 12:40:07;;;;;;;;;;;;;;;24.92;57.84;101532.28;7404623;19;1823;-39
2022/07/18 12:42:37;;;;;;;;;;;;;;;24.91;57.87;101526.03;7404837;19;2015;-39
2022/07/18 12:45:06;;;;;;;;;;;;;;;24.94;58.12;101531.13;7403321;19;1869;-39
2022/07/18 12:47:37;;;;;;;;;;;;;;;24.95;58.06;101526.59;7403990;19;2045;-38
2022/07/18 12:50:05;;;;;;;;;;;;;;;24.93;57.86;101518.63;7403284;19;1662;-38
2022/07/18 12:52:34;;;;;;;;;;;;;;;24.92;58.02;101507.94;7402946;19;1622;-39
2022/07/18 12:55:03;;;;;;;;;;;;;;;24.92;58.03;101516.06;7403862;19;1714;-39
2022/07/18 12:57:31;;;;;;;;;;;;;;;24.93;57.79;101518.63;7402733;19;1513;-38
2022/07/18 12:59:59;;;;;;;;;;;;;;;24.94;57.64;101514.88;7403630;19;1584;-38
2022/07/18 13:02:27;;;;;;;;;;;;;;;24.91;58.10;101512.50;7400267;19;1715;-39
2022/07/18 13:04:58;;;;;;;;;;;;;;;24.92;58.03;101516.06;7402295;19;1869;-39
2022/07/18 13:07:27;;;;;;;;;;;;;;;24.91;57.85;101504.41;7403833;19;1839;-39
2022/07/18 13:09:55;;;;;;;;;;;;;;;24.87;57.67;101511.13;7403058;19;1762;-38
2022/07/18 13:12:26;;;;;;;;;;;;;;;24.97;57.88;101517.28;7401433;19;1800;-39
2022/07/18 13:14:54;;;;;;;;;;;;;;;24.89;57.69;101525.34;7403393;19;1547;-38
2022/07/18 13:17:22;;;;;;;;;;;;;;;24.90;57.85;101513.50;7403486;19;1548;-38
2022/07/18 13:19:51;;;;;;;;;;;;;;;24.96;57.66;101523.69;7403065;19;1642;-39
2022/07/18 13:22:22;;;;;;;;;;;;;;;24.92;58.10;101516.06;7402575;19;1385;-38
2022/07/18 13:24:50;;;;;;;;;;;;;;;24.90;57.88;101502.69;7403473;19;1866;-38